createdAt,value
2023-03-20T00:00:51.213Z,1.00
2023-03-20T00:03:21.036Z,1.00
2023-03-20T00:05:49.193Z,1.00
2023-03-20T00:08:17.297Z,1.00
2023-03-20T00:10:48.110Z,1.00
2023-03-20T00:13:21.004Z,1.00
2023-03-20T00:15:49.007Z,1.00
2023-03-20T00:18:19.858Z,1.00
2023-03-20T00:20:49.281Z,1.00
2023-03-20T00:23:18.144Z,1.00
2023-03-20T00:25:47.369Z,1.00
2023-03-20T00:28:32.612Z,1.00
2023-03-20T00:31:01.400Z,1.00
2023-03-20T00:33:31.286Z,1.00
2023-03-20T00:36:00.858Z,1.00
2023-03-20T00:38:28.879Z,1.00
2023-03-20T00:40:56.866Z,1.00
2023-03-20T00:43:25.187Z,1.00
2023-03-20T00:45:53.260Z,1.00
2023-03-20T00:48:21.362Z,1.00
2023-03-20T00:50:49.659Z,1.00
2023-03-20T00:53:18.975Z,1.00
2023-03-20T00:55:46.995Z,1.00
2023-03-20T00:58:14.951Z,1.00
2023-03-20T01:00:44.517Z,1.00
2023-03-20T01:03:17.110Z,1.00
2023-03-20T01:05:45.838Z,1.00
2023-03-20T01:08:16.321Z,1.00
2023-03-20T01:10:46.771Z,1.00
2023-03-20T01:13:23.957Z,1.00
2023-03-20T01:15:53.416Z,1.00
2023-03-20T01:18:23.706Z,1.00
2023-03-20T01:20:52.955Z,1.00
2023-03-20T01:23:23.135Z,1.00
2023-03-20T01:25:52.464Z,1.00
2023-03-20T01:28:23.234Z,1.00
2023-03-20T01:30:51.562Z,1.00
2023-03-20T01:33:21.473Z,1.00
2023-03-20T01:35:51.085Z,1.00
2023-03-20T01:38:22.349Z,1.00
2023-03-20T01:40:57.190Z,1.00
2023-03-20T01:43:27.189Z,1.00
2023-03-20T01:46:01.475Z,1.00
2023-03-20T01:48:57.092Z,1.00
2023-03-20T01:51:26.592Z,1.00
2023-03-20T01:53:58.438Z,1.00
2023-03-20T01:56:31.500Z,1.00
2023-03-20T01:59:03.622Z,1.00
2023-03-20T02:01:32.582Z,1.00
2023-03-20T02:04:01.376Z,1.00
2023-03-20T02:06:29.523Z,1.00
2023-03-20T02:08:57.536Z,1.00
2023-03-20T02:11:28.105Z,1.00
2023-03-20T02:14:00.616Z,1.00
2023-03-20T02:16:28.893Z,1.00
2023-03-20T02:18:58.158Z,1.00
2023-03-20T02:21:58.281Z,1.00
2023-03-20T02:24:56.028Z,1.00
2023-03-20T02:27:34.661Z,1.00
2023-03-20T02:30:44.336Z,1.00
2023-03-20T02:33:42.851Z,1.00
2023-03-20T02:36:51.724Z,1.00
2023-03-20T02:39:41.484Z,1.00
2023-03-20T02:42:18.251Z,1.00
2023-03-20T02:44:54.604Z,1.00
2023-03-20T02:47:27.957Z,1.00
2023-03-20T02:50:04.979Z,1.00
2023-03-20T02:52:42.016Z,1.00
2023-03-20T02:55:18.506Z,1.00
2023-03-20T02:57:58.519Z,1.00
2023-03-20T03:00:33.516Z,1.00
2023-03-20T03:03:08.078Z,1.00
2023-03-20T03:05:41.402Z,1.00
2023-03-20T03:08:13.653Z,1.00
2023-03-20T03:10:45.800Z,1.00
2023-03-20T03:13:18.112Z,1.00
2023-03-20T03:15:47.214Z,1.00
2023-03-20T03:18:18.538Z,1.00
2023-03-20T03:20:49.036Z,1.00
2023-03-20T03:23:30.581Z,1.00
2023-03-20T03:26:02.075Z,1.00
2023-03-20T03:28:37.283Z,1.00
2023-03-20T03:31:08.502Z,1.00
2023-03-20T03:33:40.756Z,1.00
2023-03-20T03:36:16.307Z,1.00
2023-03-20T03:38:48.142Z,1.00
2023-03-20T03:41:27.802Z,1.00
2023-03-20T03:44:03.723Z,1.00
2023-03-20T03:46:39.361Z,1.00
2023-03-20T03:49:12.277Z,1.00
2023-03-20T03:51:43.620Z,1.00
2023-03-20T03:54:15.006Z,1.00
2023-03-20T03:56:48.403Z,1.00
2023-03-20T03:59:22.618Z,1.00
2023-03-20T04:01:52.668Z,1.00
2023-03-20T04:04:22.398Z,1.00
2023-03-20T04:06:50.763Z,1.00
2023-03-20T04:09:18.916Z,1.00
2023-03-20T04:11:52.054Z,1.00
2023-03-20T04:14:20.676Z,1.00
2023-03-20T04:16:48.854Z,1.00
2023-03-20T04:19:16.951Z,1.00
2023-03-20T04:21:45.710Z,1.00
2023-03-20T04:24:13.681Z,1.00
2023-03-20T04:26:41.963Z,1.00
2023-03-20T04:29:11.416Z,1.00
2023-03-20T04:31:39.438Z,1.00
2023-03-20T04:34:07.890Z,1.00
2023-03-20T04:36:35.856Z,1.00
2023-03-20T04:39:03.942Z,1.00
2023-03-20T04:41:31.873Z,1.00
2023-03-20T04:44:00.128Z,1.00
2023-03-20T04:46:29.695Z,1.00
2023-03-20T04:48:57.613Z,1.00
2023-03-20T04:51:25.957Z,1.00
2023-03-20T04:53:53.983Z,1.00
2023-03-20T04:56:21.976Z,1.00
2023-03-20T04:58:49.913Z,1.00
2023-03-20T05:01:17.900Z,1.00
2023-03-20T05:03:47.407Z,1.00
2023-03-20T05:06:15.466Z,1.00
2023-03-20T05:08:43.530Z,1.00
2023-03-20T05:11:11.814Z,1.00
2023-03-20T05:13:39.941Z,1.00
2023-03-20T05:16:09.505Z,1.00
2023-03-20T05:18:37.564Z,1.00
2023-03-20T05:21:08.226Z,1.70
2023-03-20T05:23:36.291Z,2.80
2023-03-20T05:26:04.432Z,2.10
2023-03-20T05:28:33.079Z,3.80
2023-03-20T05:31:01.317Z,1.00
2023-03-20T05:33:29.653Z,1.00
2023-03-20T05:35:57.991Z,1.00
2023-03-20T05:38:27.837Z,1.00
2023-03-20T05:40:59.955Z,1.00
2023-03-20T05:43:29.100Z,1.00
2023-03-20T05:45:57.246Z,1.00
2023-03-20T05:48:25.933Z,1.00
2023-03-20T05:50:53.993Z,1.00
2023-03-20T05:53:21.965Z,1.00
2023-03-20T05:55:51.382Z,1.00
2023-03-20T05:58:19.722Z,1.00
2023-03-20T06:00:47.939Z,1.00
2023-03-20T06:03:16.016Z,1.00
2023-03-20T06:05:45.418Z,1.00
2023-03-20T06:08:13.438Z,1.00
2023-03-20T06:10:41.473Z,1.00
2023-03-20T06:13:10.911Z,1.00
2023-03-20T06:15:39.309Z,1.00
2023-03-20T06:18:07.670Z,1.00
2023-03-20T06:20:35.905Z,1.00
2023-03-20T06:23:04.233Z,1.00
2023-03-20T06:25:32.550Z,1.00
2023-03-20T06:28:00.533Z,1.00
2023-03-20T06:30:30.065Z,1.00
2023-03-20T06:32:58.141Z,1.00
2023-03-20T06:35:30.772Z,1.00
2023-03-20T06:37:59.139Z,1.00
2023-03-20T06:40:28.391Z,1.00
2023-03-20T06:42:56.720Z,1.00
2023-03-20T06:45:24.725Z,1.00
2023-03-20T06:47:54.241Z,1.00
2023-03-20T06:50:22.221Z,1.00
2023-03-20T06:52:50.275Z,1.00
2023-03-20T06:55:18.379Z,1.00
2023-03-20T06:57:46.634Z,1.00
2023-03-20T07:00:15.849Z,1.00
2023-03-20T07:02:43.846Z,1.00
2023-03-20T07:05:13.290Z,1.00
2023-03-20T07:07:41.557Z,1.00
2023-03-20T07:10:12.503Z,1.00
2023-03-20T07:12:40.749Z,1.00
2023-03-20T07:15:09.670Z,1.00
2023-03-20T07:17:37.832Z,1.00
2023-03-20T07:20:06.545Z,1.00
2023-03-20T07:22:35.915Z,1.00
2023-03-20T07:25:04.461Z,1.00
2023-03-20T07:27:32.525Z,1.00
2023-03-20T07:30:00.805Z,1.00
2023-03-20T07:32:28.946Z,1.00
2023-03-20T07:34:57.474Z,1.00
2023-03-20T07:37:25.745Z,1.00
2023-03-20T07:39:55.328Z,1.00
2023-03-20T07:42:23.473Z,1.00
2023-03-20T07:44:51.537Z,1.00
2023-03-20T07:47:19.529Z,1.00
2023-03-20T07:49:47.962Z,1.00
2023-03-20T07:52:17.180Z,4.10
2023-03-20T07:54:45.183Z,1.00
2023-03-20T07:57:14.487Z,1.00
2023-03-20T07:59:42.650Z,23.50
2023-03-20T08:02:15.911Z,56.10
2023-03-20T08:04:44.102Z,75.80
2023-03-20T08:07:12.946Z,99.90
2023-03-20T08:09:41.207Z,99.90
2023-03-20T08:12:09.390Z,99.90
2023-03-20T08:14:39.784Z,99.90
2023-03-20T08:17:14.902Z,99.90
2023-03-20T08:19:43.213Z,99.90
2023-03-20T08:22:11.350Z,99.90
2023-03-20T08:24:39.472Z,99.90
2023-03-20T08:27:07.841Z,99.90
2023-03-20T08:29:36.056Z,99.90
2023-03-20T08:32:05.670Z,99.90
2023-03-20T08:34:34.385Z,99.90
2023-03-20T08:37:04.860Z,99.90
2023-03-20T08:39:33.316Z,99.90
2023-03-20T08:42:01.522Z,99.90
2023-03-20T08:44:29.623Z,99.90
2023-03-20T08:46:57.576Z,99.90
2023-03-20T08:49:28.027Z,99.90
2023-03-20T08:51:56.488Z,99.90
2023-03-20T08:54:25.250Z,99.90
2023-03-20T08:56:53.420Z,99.90
2023-03-20T08:59:21.628Z,99.90
2023-03-20T09:01:50.508Z,99.90
2023-03-20T09:04:19.418Z,99.90
2023-03-20T09:06:48.941Z,99.90
2023-03-20T09:09:19.634Z,99.90
2023-03-20T09:11:47.596Z,99.90
2023-03-20T09:14:16.209Z,99.90
2023-03-20T09:16:44.549Z,99.90
2023-03-20T09:19:12.696Z,99.90
2023-03-20T09:21:40.734Z,99.90
2023-03-20T09:24:11.517Z,99.90
2023-03-20T09:26:39.712Z,99.90
2023-03-20T09:29:07.877Z,99.90
2023-03-20T09:31:36.032Z,99.90
2023-03-20T09:34:04.281Z,99.90
2023-03-20T09:36:32.224Z,99.90
2023-03-20T09:39:00.482Z,99.90
2023-03-20T09:41:45.795Z,99.90
2023-03-20T09:44:41.093Z,99.90
2023-03-20T09:47:21.193Z,99.90
2023-03-20T09:50:00.129Z,99.90
2023-03-20T09:52:32.862Z,99.90
2023-03-20T09:55:05.012Z,99.90
2023-03-20T09:57:40.365Z,99.90
2023-03-20T10:00:13.667Z,99.90
2023-03-20T10:02:49.302Z,99.90
2023-03-20T10:05:22.871Z,99.90
2023-03-20T10:07:51.653Z,99.90
2023-03-20T10:10:20.978Z,99.90
2023-03-20T10:13:00.191Z,99.90
2023-03-20T10:15:42.949Z,99.90
2023-03-20T10:18:22.134Z,99.90
2023-03-20T10:20:56.713Z,99.90
2023-03-20T10:23:32.152Z,99.90
2023-03-20T10:26:06.211Z,99.90
2023-03-20T10:28:41.153Z,99.90
2023-03-20T10:31:28.081Z,99.90
2023-03-20T10:34:06.044Z,99.90
2023-03-20T10:36:45.139Z,99.90
2023-03-20T10:39:24.101Z,99.90
2023-03-20T10:41:56.209Z,99.90
2023-03-20T10:44:32.306Z,99.90
2023-03-20T10:47:03.285Z,99.90
2023-03-20T10:49:37.666Z,99.90
2023-03-20T10:52:12.170Z,99.90
2023-03-20T10:54:43.549Z,99.90
2023-03-20T10:57:18.534Z,99.90
2023-03-20T10:59:51.109Z,99.90
2023-03-20T11:02:21.225Z,99.90
2023-03-20T11:04:49.341Z,99.90
2023-03-20T11:07:24.592Z,99.90
2023-03-20T11:10:12.238Z,99.90
2023-03-20T11:12:41.892Z,99.90
2023-03-20T11:15:29.854Z,99.90
2023-03-20T11:17:59.176Z,99.90
2023-03-20T11:20:28.735Z,99.90
2023-03-20T11:23:03.546Z,99.90
2023-03-20T11:25:33.992Z,99.90
2023-03-20T11:28:20.726Z,99.90
2023-03-20T11:31:04.605Z,99.90
2023-03-20T11:33:34.964Z,99.90
2023-03-20T11:36:03.198Z,99.90
2023-03-20T11:38:32.919Z,99.90
2023-03-20T11:41:05.787Z,99.90
2023-03-20T11:43:39.291Z,99.90
2023-03-20T11:46:13.635Z,99.90
2023-03-20T11:48:43.218Z,99.90
2023-03-20T11:51:15.578Z,99.90
2023-03-20T11:53:55.459Z,99.90
2023-03-20T11:56:26.076Z,99.90
2023-03-20T11:58:58.844Z,99.90
2023-03-20T12:01:30.033Z,99.90
2023-03-20T12:04:04.372Z,1.00
2023-03-20T12:06:44.118Z,99.90
2023-03-20T12:09:23.752Z,99.90
2023-03-20T12:11:55.503Z,1.00
2023-03-20T12:14:32.141Z,99.90
2023-03-20T12:17:16.611Z,99.90
2023-03-20T12:19:47.021Z,99.90
2023-03-20T12:22:22.551Z,1.00
2023-03-20T12:24:56.173Z,1.00
2023-03-20T12:27:29.116Z,1.00
2023-03-20T12:30:03.639Z,1.00
2023-03-20T12:32:39.590Z,1.00
2023-03-20T12:35:16.444Z,1.00
2023-03-20T12:37:44.796Z,1.00
2023-03-20T12:40:18.866Z,1.00
2023-03-20T12:43:01.203Z,1.00
2023-03-20T12:45:37.822Z,1.00
2023-03-20T12:48:30.932Z,1.00
2023-03-20T12:51:06.772Z,1.00
2023-03-20T12:53:46.603Z,1.00
2023-03-20T12:56:25.294Z,1.00
2023-03-20T12:58:59.053Z,1.00
2023-03-20T13:01:32.278Z,1.00
2023-03-20T13:04:34.799Z,1.00
2023-03-20T13:07:05.128Z,1.00
2023-03-20T13:09:52.171Z,1.00
2023-03-20T13:12:31.202Z,1.00
2023-03-20T13:15:14.587Z,1.00
2023-03-20T13:17:48.220Z,1.00
2023-03-20T13:20:25.064Z,1.00
2023-03-20T13:23:11.197Z,1.00
2023-03-20T13:26:11.701Z,1.00
2023-03-20T13:28:48.245Z,1.00
2023-03-20T13:31:27.976Z,1.00
2023-03-20T13:34:04.169Z,1.00
2023-03-20T13:36:45.199Z,1.00
2023-03-20T13:39:17.080Z,1.00
2023-03-20T13:41:48.249Z,1.00
2023-03-20T13:44:21.006Z,1.00
2023-03-20T13:46:52.700Z,1.00
2023-03-20T13:49:26.861Z,1.00
2023-03-20T13:52:04.741Z,1.00
2023-03-20T13:54:47.794Z,1.00
2023-03-20T13:57:27.864Z,1.00
2023-03-20T14:00:08.386Z,1.00
2023-03-20T14:02:52.534Z,1.00
2023-03-20T14:05:23.606Z,1.00
2023-03-20T14:07:57.466Z,1.00
2023-03-20T14:10:39.436Z,1.00
2023-03-20T14:13:14.474Z,1.00
2023-03-20T14:15:50.712Z,1.00
2023-03-20T14:18:22.654Z,1.00
2023-03-20T14:20:57.191Z,1.00
2023-03-20T14:23:35.570Z,9.40
2023-03-20T14:26:09.232Z,27.70
2023-03-20T14:28:47.193Z,18.10
2023-03-20T14:31:24.679Z,22.60
2023-03-20T14:34:00.467Z,30.80
2023-03-20T14:36:44.798Z,56.90
2023-03-20T14:39:22.146Z,74.30
2023-03-20T14:42:01.102Z,84.80
2023-03-20T14:44:46.413Z,94.90
2023-03-20T14:47:25.683Z,99.40
2023-03-20T14:49:58.872Z,99.90
2023-03-20T14:52:51.539Z,99.90
2023-03-20T14:55:47.467Z,99.90
2023-03-20T14:58:54.615Z,99.90
2023-03-20T15:01:29.718Z,99.90
2023-03-20T15:04:01.570Z,99.90
2023-03-20T15:06:30.631Z,99.90
2023-03-20T15:09:01.821Z,99.90
2023-03-20T15:11:31.812Z,99.90
2023-03-20T15:14:01.386Z,99.90
2023-03-20T15:16:31.470Z,99.90
2023-03-20T15:19:00.118Z,99.90
2023-03-20T15:21:34.974Z,99.90
2023-03-20T15:24:03.631Z,99.90
2023-03-20T15:26:35.816Z,99.90
2023-03-20T15:29:07.780Z,99.90
2023-03-20T15:31:38.182Z,99.90
2023-03-20T15:34:09.987Z,99.90
2023-03-20T15:36:40.888Z,99.90
2023-03-20T15:39:16.194Z,99.90
2023-03-20T15:41:48.265Z,99.90
2023-03-20T15:44:22.185Z,99.90
2023-03-20T15:47:00.274Z,99.90
2023-03-20T15:49:29.766Z,99.90
2023-03-20T15:52:01.693Z,99.90
2023-03-20T15:54:30.105Z,99.90
2023-03-20T15:57:01.611Z,99.90
2023-03-20T15:59:33.723Z,99.90
2023-03-20T16:02:03.077Z,99.90
2023-03-20T16:04:31.184Z,99.90
2023-03-20T16:07:00.693Z,99.90
2023-03-20T16:09:29.379Z,99.90
2023-03-20T16:12:00.409Z,99.90
2023-03-20T16:14:31.100Z,99.90
2023-03-20T16:17:01.671Z,99.90
2023-03-20T16:19:30.666Z,99.90
2023-03-20T16:22:01.387Z,99.90
2023-03-20T16:24:31.106Z,99.90
2023-03-20T16:27:00.842Z,99.90
2023-03-20T16:29:30.895Z,99.90
2023-03-20T16:32:02.741Z,99.90
2023-03-20T16:34:35.526Z,99.90
2023-03-20T16:37:09.282Z,99.90
2023-03-20T16:39:37.495Z,99.90
2023-03-20T16:42:31.234Z,99.90
2023-03-20T16:44:59.850Z,99.90
2023-03-20T16:47:36.533Z,99.90
2023-03-20T16:50:20.039Z,99.90
2023-03-20T16:52:51.217Z,99.90
2023-03-20T16:55:25.583Z,99.90
2023-03-20T16:57:58.444Z,99.90
2023-03-20T17:00:30.171Z,99.90
2023-03-20T17:03:16.679Z,99.90
2023-03-20T17:05:55.280Z,99.90
2023-03-20T17:08:37.906Z,99.90
2023-03-20T17:11:10.422Z,99.90
2023-03-20T17:13:39.745Z,99.90
2023-03-20T17:16:08.820Z,99.90
2023-03-20T17:18:38.125Z,99.90
2023-03-20T17:21:06.398Z,99.90
2023-03-20T17:23:34.866Z,99.90
2023-03-20T17:26:02.817Z,99.90
2023-03-20T17:28:35.060Z,99.90
2023-03-20T17:31:05.508Z,99.90
2023-03-20T17:33:33.950Z,99.90
2023-03-20T17:36:02.256Z,99.90
2023-03-20T17:38:30.391Z,99.90
2023-03-20T17:40:58.361Z,99.90
2023-03-20T17:43:26.321Z,99.90
2023-03-20T17:45:54.434Z,99.90
2023-03-20T17:48:23.803Z,99.90
2023-03-20T17:50:51.862Z,99.90
2023-03-20T17:53:21.763Z,99.90
2023-03-20T17:55:49.785Z,99.90
2023-03-20T17:58:20.321Z,99.90
2023-03-20T18:00:48.643Z,99.90
2023-03-20T18:03:18.111Z,99.90
2023-03-20T18:05:50.810Z,99.90
2023-03-20T18:08:21.125Z,99.90
2023-03-20T18:10:50.205Z,99.90
2023-03-20T18:13:21.010Z,99.90
2023-03-20T18:15:49.677Z,99.90
2023-03-20T18:18:21.891Z,99.90
2023-03-20T18:20:54.778Z,99.90
2023-03-20T18:23:23.116Z,99.90
2023-03-20T18:25:51.252Z,99.90
2023-03-20T18:28:22.935Z,99.90
2023-03-20T18:30:51.648Z,99.90
2023-03-20T18:33:25.202Z,99.90
2023-03-20T18:35:55.061Z,1.00
2023-03-20T18:38:24.714Z,1.00
2023-03-20T18:40:52.792Z,1.00
2023-03-20T18:43:20.821Z,1.00
2023-03-20T18:45:49.226Z,1.00
2023-03-20T18:48:18.096Z,1.00
2023-03-20T18:50:50.964Z,1.00
2023-03-20T18:53:20.831Z,1.00
2023-03-20T18:55:49.018Z,1.00
2023-03-20T18:58:22.544Z,1.00
2023-03-20T19:00:50.708Z,1.00
2023-03-20T19:03:18.659Z,1.00
2023-03-20T19:05:46.661Z,1.00
2023-03-20T19:08:16.981Z,1.00
2023-03-20T19:10:47.821Z,1.00
2023-03-20T19:13:18.019Z,1.00
2023-03-20T19:15:46.994Z,1.00
2023-03-20T19:18:20.227Z,1.00
2023-03-20T19:20:49.970Z,1.00
2023-03-20T19:23:19.867Z,1.00
2023-03-20T19:25:51.302Z,1.00
2023-03-20T19:28:34.879Z,1.00
2023-03-20T19:31:06.524Z,1.00
2023-03-20T19:33:34.674Z,1.00
2023-03-20T19:36:04.332Z,1.00
2023-03-20T19:38:33.335Z,1.00
2023-03-20T19:41:03.726Z,1.00
2023-03-20T19:43:32.412Z,1.00
2023-03-20T19:46:00.911Z,1.00
2023-03-20T19:48:49.744Z,1.00
2023-03-20T19:51:20.136Z,1.00
2023-03-20T19:53:48.714Z,1.00
2023-03-20T19:56:20.374Z,1.00
2023-03-20T19:58:50.897Z,1.00
2023-03-20T20:01:21.469Z,1.00
2023-03-20T20:03:50.804Z,1.00
2023-03-20T20:06:22.224Z,1.00
2023-03-20T20:08:51.461Z,1.00
2023-03-20T20:11:22.275Z,1.00
2023-03-20T20:14:05.740Z,1.00
2023-03-20T20:16:36.277Z,1.00
2023-03-20T20:19:04.901Z,1.00
2023-03-20T20:24:23.963Z,1.00
2023-03-20T20:27:03.477Z,1.00
2023-03-20T20:29:42.996Z,1.00
2023-03-20T20:32:11.214Z,1.00
2023-03-20T20:40:19.879Z,1.00
2023-03-20T20:42:51.532Z,1.00
2023-03-20T20:45:21.153Z,1.00
2023-03-20T20:47:49.803Z,1.00
2023-03-20T20:50:19.992Z,1.00
2023-03-20T20:52:48.338Z,1.00
2023-03-20T20:55:22.845Z,1.00
2023-03-20T20:57:53.547Z,1.00
2023-03-20T21:00:27.407Z,1.00
2023-03-20T21:02:59.721Z,1.00
2023-03-20T21:05:28.156Z,1.00
2023-03-20T21:07:57.830Z,1.00
2023-03-20T21:10:25.852Z,1.00
2023-03-20T21:12:59.579Z,1.00
2023-03-20T21:15:28.097Z,1.00
2023-03-20T21:18:03.411Z,1.00
2023-03-20T21:20:31.575Z,1.00
2023-03-20T21:22:59.733Z,1.00
2023-03-20T21:25:39.531Z,1.00
2023-03-20T21:28:10.662Z,1.00
2023-03-20T21:30:49.850Z,1.00
2023-03-20T21:33:30.236Z,1.00
2023-03-20T21:35:58.242Z,1.00
2023-03-20T21:41:14.370Z,1.00
2023-03-20T21:43:46.616Z,1.00
2023-03-20T21:46:46.704Z,1.00
2023-03-20T21:52:41.848Z,1.00
2023-03-20T21:58:16.902Z,1.00
2023-03-20T22:01:08.382Z,1.00
2023-03-20T22:03:10.963Z,1.00
2023-03-20T22:06:23.723Z,1.00
2023-03-20T22:17:48.631Z,1.00
2023-03-20T22:26:10.178Z,1.00
2023-03-20T22:37:25.507Z,1.00
2023-03-20T22:42:51.367Z,1.00
2023-03-20T22:45:03.250Z,1.00
2023-03-20T22:47:32.393Z,1.00
2023-03-20T22:50:02.516Z,1.00
2023-03-20T22:52:49.366Z,1.00
2023-03-20T22:55:18.380Z,1.00
2023-03-20T22:57:59.868Z,1.00
2023-03-20T23:00:34.043Z,1.00
2023-03-20T23:05:51.965Z,1.00
2023-03-20T23:08:20.194Z,1.00
2023-03-20T23:10:50.596Z,1.00
2023-03-20T23:13:20.327Z,1.00
2023-03-20T23:15:50.538Z,1.00
2023-03-20T23:18:18.849Z,1.00
2023-03-20T23:20:46.757Z,1.00
2023-03-20T23:23:16.159Z,1.00
2023-03-20T23:25:44.116Z,1.00
2023-03-20T23:28:12.075Z,1.00
2023-03-20T23:30:56.673Z,1.00
2023-03-20T23:33:27.874Z,1.00
2023-03-20T23:35:58.474Z,1.00
2023-03-20T23:38:38.408Z,1.00
2023-03-20T23:41:06.972Z,1.00
2023-03-20T23:43:34.871Z,1.00
2023-03-20T23:46:02.814Z,1.00
2023-03-20T23:48:31.056Z,1.00
2023-03-20T23:50:59.251Z,1.00
2023-03-20T23:53:27.637Z,1.00
2023-03-20T23:55:58.229Z,1.00
2023-03-20T23:58:28.302Z,1.00
